Time;durP1;ratioP1;P1;durP2;ratioP2;P2;SDS_P1;SDS_P2;PMS_P1;PMS_P2;Temp;Humidity;BMP_temperature;BMP_pressure;BME280_temperature;BME280_humidity;BME280_pressure;Samples;Min_cycle;Max_cycle;Signal;HPM_P1;HPM_P2
2022/05/01 02:03:06;;;;;;;12.90;6.80;;;;;;;3.53;100.00;101286.50;4984118;28;20303;-72
2022/05/01 02:05:34;;;;;;;11.07;7.10;;;;;;;3.45;100.00;101288.09;4983769;28;20308;-72
2022/05/01 02:08:01;;;;;;;10.73;6.90;;;;;;;3.41;100.00;101280.34;4988244;28;20196;-71
2022/05/01 02:10:28;;;;;;;10.20;6.80;;;;;;;3.53;100.00;101282.19;4996755;28;20220;-72
2022/05/01 02:12:55;;;;;;;10.40;7.13;;;;;;;3.48;100.00;101277.81;4998824;28;20199;-70
2022/05/01 12:45:35;;;;;;;5.97;3.00;;;;;;;19.17;31.50;101231.69;4982557;28;20797;-71
2022/05/01 12:48:04;;;;;;;4.47;2.80;;;;;;;19.12;32.51;101225.78;4984761;28;20260;-71
2022/05/01 12:50:31;;;;;;;2.80;2.50;;;;;;;19.11;31.98;101232.00;4975097;28;20731;-71
2022/05/01 12:53:01;;;;;;;3.37;2.40;;;;;;;18.99;31.35;101225.53;4960938;28;20194;-72
2022/05/01 15:53:41;;;;;;;4.77;2.57;;;;;;;18.63;35.97;101155.19;3336658;26;20637;-72
2022/05/01 15:56:08;;;;;;;6.20;2.77;;;;;;;18.52;35.10;101153.09;5003405;28;20208;-71
2022/05/01 15:58:38;;;;;;;3.77;2.50;;;;;;;18.45;35.80;101150.81;4991709;28;20775;-71
2022/05/01 16:01:06;;;;;;;4.40;3.20;;;;;;;18.42;36.10;101148.38;4982662;28;21005;-72
2022/05/01 16:03:32;;;;;;;3.40;2.50;;;;;;;18.39;35.07;101145.88;4985802;28;20280;-72
2022/05/01 16:06:02;;;;;;;3.67;2.73;;;;;;;18.32;35.94;101140.88;4986589;28;20205;-71
2022/05/01 16:08:34;;;;;;;5.93;2.63;;;;;;;18.27;36.34;101136.78;4981449;28;20220;-71
2022/05/01 16:11:10;;;;;;;3.43;2.70;;;;;;;18.22;36.05;101137.00;4996480;28;20202;-71
2022/05/01 16:13:44;;;;;;;4.90;2.63;;;;;;;18.20;37.33;101135.38;4987837;28;20209;-71
2022/05/01 16:16:18;;;;;;;4.33;2.40;;;;;;;18.19;36.75;101139.81;4987698;28;20197;-71
2022/05/01 16:19:03;;;;;;;3.40;2.67;;;;;;;18.19;37.15;101131.91;4985612;28;20225;-71
2022/05/01 16:21:35;;;;;;;4.63;2.33;;;;;;;17.95;39.74;101126.88;4984227;28;20724;-70
2022/05/01 16:24:09;;;;;;;4.17;2.33;;;;;;;17.77;40.96;101138.31;4983965;28;20201;-71
2022/05/01 16:26:39;;;;;;;6.10;2.30;;;;;;;17.67;40.92;101135.25;4982840;28;20303;-71
2022/05/01 16:29:10;;;;;;;3.10;2.47;;;;;;;17.53;41.29;101138.53;4986292;28;20217;-71
2022/05/01 16:31:44;;;;;;;3.27;2.50;;;;;;;17.26;41.68;101140.69;4983798;28;20201;-72
2022/05/01 16:34:20;;;;;;;4.73;2.17;;;;;;;17.09;41.86;101135.31;4984702;28;20198;-71
2022/05/01 16:36:51;;;;;;;4.87;2.53;;;;;;;16.92;41.97;101134.31;4986237;28;20215;-72
2022/05/01 16:39:19;;;;;;;3.87;2.37;;;;;;;16.75;41.98;101150.81;4983903;28;20213;-71
2022/05/01 16:41:49;;;;;;;5.00;2.50;;;;;;;16.64;42.53;101139.91;4980996;28;20663;-71
2022/05/01 16:44:17;;;;;;;2.53;2.30;;;;;;;16.47;42.34;101141.47;4980204;28;20224;-70
2022/05/01 16:46:47;;;;;;;3.53;2.40;;;;;;;16.37;42.69;101153.31;4986335;28;20276;-71
2022/05/01 16:49:13;;;;;;;2.90;2.60;;;;;;;16.34;42.92;101149.94;4981502;28;20231;-72
2022/05/01 16:51:41;;;;;;;3.73;2.53;;;;;;;16.30;42.95;101157.09;4986930;28;20715;-71
2022/05/01 16:54:09;;;;;;;6.17;2.60;;;;;;;16.15;43.01;101149.88;4979506;28;20212;-71
2022/05/01 16:56:38;;;;;;;4.90;2.43;;;;;;;16.06;43.13;101141.44;4985583;28;20231;-71
2022/05/01 16:59:09;;;;;;;2.40;2.20;;;;;;;15.93;42.97;101157.75;4987147;28;20991;-71
2022/05/01 17:01:42;;;;;;;5.77;2.50;;;;;;;15.83;43.00;101154.63;4988992;28;20668;-71
2022/05/01 17:04:09;;;;;;;3.30;2.20;;;;;;;15.77;43.56;101152.25;4984487;28;20200;-71
2022/05/01 17:06:43;;;;;;;3.13;2.23;;;;;;;15.71;43.78;101155.97;4986574;28;20211;-72
2022/05/01 17:09:21;;;;;;;4.20;2.10;;;;;;;15.68;44.23;101156.91;4985748;28;20232;-71
2022/05/01 17:11:53;;;;;;;3.73;2.33;;;;;;;15.55;44.06;101157.44;4983622;28;20687;-71
2022/05/01 17:14:35;;;;;;;4.40;2.13;;;;;;;15.41;44.05;101150.09;4987472;28;20199;-71
2022/05/01 17:17:17;;;;;;;4.50;2.80;;;;;;;15.28;44.54;101153.19;4985020;28;20221;-72
2022/05/01 17:19:47;;;;;;;3.80;2.47;;;;;;;15.22;44.57;101158.69;4984283;28;20263;-71
2022/05/01 17:22:24;;;;;;;4.03;2.40;;;;;;;15.15;45.07;101159.81;4986472;28;20240;-71
2022/05/01 17:24:59;;;;;;;3.43;2.43;;;;;;;15.07;44.80;101152.19;4985918;28;20222;-71
2022/05/01 17:27:31;;;;;;;3.93;2.47;;;;;;;14.96;45.11;101162.25;4985428;28;20248;-72
2022/05/01 17:30:07;;;;;;;2.77;2.47;;;;;;;14.85;45.51;101154.75;4986916;28;20209;-71
2022/05/01 17:32:40;;;;;;;4.30;2.90;;;;;;;14.80;45.63;101163.72;4986177;28;20204;-71
2022/05/01 17:35:07;;;;;;;5.87;2.43;;;;;;;14.70;46.14;101160.53;4985748;28;20715;-71
2022/05/01 17:37:34;;;;;;;4.07;2.70;;;;;;;14.56;46.21;101164.47;4987105;28;20225;-72
2022/05/01 17:40:01;;;;;;;4.30;2.90;;;;;;;14.46;46.48;101170.06;4985467;28;20208;-71
2022/05/01 17:42:28;;;;;;;5.30;2.70;;;;;;;14.37;46.51;101172.13;4987567;28;20221;-72
2022/05/01 17:44:56;;;;;;;4.43;2.63;;;;;;;14.30;47.13;101172.34;4986289;28;20210;-71
2022/05/01 17:47:25;;;;;;;3.50;2.30;;;;;;;14.20;47.44;101175.28;4987507;28;20229;-71
2022/05/01 17:49:53;;;;;;;6.33;2.37;;;;;;;14.09;47.22;101179.16;4986277;28;20269;-71
2022/05/01 17:52:20;;;;;;;3.33;2.70;;;;;;;13.98;47.54;101176.88;4986879;28;20198;-71
2022/05/01 17:54:48;;;;;;;6.60;2.97;;;;;;;13.86;48.29;101175.50;4987413;28;20201;-72
2022/05/01 17:57:14;;;;;;;4.57;2.80;;;;;;;13.77;48.36;101175.78;4987190;28;20205;-71
2022/05/01 17:59:41;;;;;;;6.30;2.90;;;;;;;13.64;48.33;101175.28;4985463;28;20222;-71
2022/05/01 18:02:32;;;;;;;4.77;3.10;;;;;;;13.54;48.73;101179.09;4988101;28;20213;-71
2022/05/01 18:10:57;;;;;;;4.93;2.60;;;;;;;13.19;50.06;101188.78;4987425;28;20193;-71
2022/05/01 18:13:33;;;;;;;4.90;2.87;;;;;;;13.12;50.19;101189.84;4985418;28;20216;-71
2022/05/01 18:16:04;;;;;;;5.53;2.73;;;;;;;13.02;50.51;101197.97;4987014;28;20554;-70
2022/05/01 18:18:55;;;;;;;4.67;2.70;;;;;;;12.92;51.04;101200.88;4983240;28;20311;-71
2022/05/01 18:21:30;;;;;;;4.57;3.10;;;;;;;12.83;51.31;101204.59;4984647;28;20762;-71
2022/05/01 18:24:05;;;;;;;4.27;3.00;;;;;;;12.72;51.57;101209.22;4986839;28;20883;-72
2022/05/01 18:26:42;;;;;;;4.83;2.77;;;;;;;12.63;51.99;101208.59;4986135;28;20213;-71
2022/05/01 18:32:08;;;;;;;3.93;2.70;;;;;;;12.45;52.91;101211.66;4985470;28;20722;-71
2022/05/01 18:34:47;;;;;;;4.93;3.10;;;;;;;12.34;52.89;101217.16;4987441;28;20242;-71
2022/05/01 18:37:20;;;;;;;4.00;3.03;;;;;;;12.26;53.25;101212.13;4987537;28;20199;-72
2022/05/01 18:40:03;;;;;;;5.60;2.93;;;;;;;12.20;53.47;101222.69;4985049;28;20219;-71
2022/05/01 18:42:33;;;;;;;3.83;2.60;;;;;;;12.15;53.69;101218.47;4981799;28;20230;-71
2022/05/01 18:45:02;;;;;;;3.53;2.60;;;;;;;12.07;53.86;101221.28;4980461;28;20211;-71
2022/05/01 18:47:29;;;;;;;7.77;3.03;;;;;;;11.96;55.04;101231.97;4983990;28;20226;-71
2022/05/01 18:49:58;;;;;;;3.63;2.57;;;;;;;11.87;54.31;101229.50;4984873;28;20692;-71
2022/05/01 18:52:27;;;;;;;2.90;2.53;;;;;;;11.78;55.11;101225.34;4986849;28;20212;-71
2022/05/01 18:54:55;;;;;;;4.33;3.13;;;;;;;11.69;55.64;101231.63;4985119;28;20210;-71
2022/05/01 18:57:22;;;;;;;6.57;3.50;;;;;;;11.60;55.49;101238.81;4984126;28;20614;-71
2022/05/01 18:59:50;;;;;;;6.20;3.80;;;;;;;11.52;56.00;101232.00;4985540;28;20199;-71
2022/05/01 19:02:17;;;;;;;5.90;3.50;;;;;;;11.45;56.12;101240.84;4991768;28;20256;-71
2022/05/01 19:04:43;;;;;;;4.83;3.10;;;;;;;11.35;56.74;101242.75;4990655;28;20233;-71
2022/05/01 19:07:21;;;;;;;4.57;3.00;;;;;;;11.25;56.86;101254.28;4988974;28;20277;-71
2022/05/01 19:10:01;;;;;;;3.43;2.50;;;;;;;11.18;57.19;101247.44;4986351;28;20193;-71
2022/05/01 19:12:46;;;;;;;5.00;3.30;;;;;;;11.11;57.67;101251.06;4988481;28;20678;-71
2022/05/01 19:15:20;;;;;;;4.03;2.80;;;;;;;11.01;58.08;101260.81;4988413;28;20202;-71
2022/05/01 19:18:03;;;;;;;4.23;2.97;;;;;;;10.89;60.01;101250.59;4983778;28;20228;-71
2022/05/01 19:20:41;;;;;;;5.00;3.23;;;;;;;10.79;59.48;101257.72;4989033;28;20213;-71
2022/05/01 19:26:31;;;;;;;3.57;3.00;;;;;;;10.55;61.96;101248.53;4987997;28;20203;-71
2022/05/01 19:29:02;;;;;;;6.17;3.40;;;;;;;10.45;61.41;101254.78;4985167;28;20221;-71
2022/05/01 19:31:32;;;;;;;3.83;2.97;;;;;;;10.36;62.39;101258.38;4990349;28;20209;-71
2022/05/01 19:34:14;;;;;;;18.83;4.97;;;;;;;10.29;63.11;101256.72;4989641;28;20210;-71
2022/05/01 19:36:47;;;;;;;5.00;3.40;;;;;;;10.21;63.03;101265.53;4991046;28;20676;-71
2022/05/01 19:39:27;;;;;;;82.80;7.07;;;;;;;10.12;62.68;101260.44;4989714;28;20231;-71
2022/05/01 19:42:19;;;;;;;5.47;3.70;;;;;;;10.04;62.83;101265.78;4989793;28;20290;-71
2022/05/01 19:44:59;;;;;;;4.63;3.53;;;;;;;9.97;62.98;101261.53;4989850;28;20201;-71
2022/05/01 19:53:06;;;;;;;6.63;4.07;;;;;;;9.75;67.25;101260.09;4983716;28;20298;-71
2022/05/01 19:55:38;;;;;;;5.07;3.20;;;;;;;9.69;68.86;101261.00;4987613;28;20215;-71
2022/05/01 19:58:05;;;;;;;4.40;3.80;;;;;;;9.58;68.84;101265.47;4988825;28;20231;-71
2022/05/01 20:00:41;;;;;;;3.87;3.30;;;;;;;9.52;71.18;101273.38;4987814;28;20246;-71
2022/05/01 20:03:10;;;;;;;5.27;3.83;;;;;;;9.38;71.99;101263.13;4988673;28;20273;-70
2022/05/01 20:05:36;;;;;;;5.43;4.10;;;;;;;9.28;72.05;101264.94;4989254;28;20218;-71
2022/05/01 20:08:04;;;;;;;4.53;3.67;;;;;;;9.25;74.50;101265.84;4986745;28;20766;-71
2022/05/01 20:10:35;;;;;;;6.23;3.60;;;;;;;9.19;74.85;101259.84;4986894;28;20208;-71
2022/05/01 20:13:02;;;;;;;5.47;4.00;;;;;;;9.03;72.98;101267.78;4988026;28;20222;-71
2022/05/01 20:15:41;;;;;;;5.97;3.60;;;;;;;9.05;77.92;101266.03;4987760;28;20205;-71
2022/05/01 20:18:12;;;;;;;5.27;3.70;;;;;;;8.93;77.20;101263.53;4988402;28;20546;-70
2022/05/01 20:20:49;;;;;;;3.90;3.43;;;;;;;8.88;79.96;101263.59;4987880;28;20546;-71
2022/05/01 20:23:25;;;;;;;5.70;3.77;;;;;;;8.80;78.75;101264.56;4986291;28;20218;-70
2022/05/01 20:26:01;;;;;;;4.33;3.47;;;;;;;8.71;79.66;101262.88;4984129;28;20288;-71
2022/05/01 20:28:41;;;;;;;7.30;4.20;;;;;;;8.64;80.56;101259.47;4987206;28;20224;-71
2022/05/01 20:31:17;;;;;;;5.70;4.70;;;;;;;8.48;79.33;101255.28;4986479;28;20205;-70
2022/05/01 20:33:48;;;;;;;4.50;3.87;;;;;;;8.48;81.37;101250.06;4984152;28;20201;-71
2022/05/01 20:36:26;;;;;;;4.77;3.80;;;;;;;8.43;81.87;101254.44;4985959;28;20205;-71
2022/05/01 20:39:03;;;;;;;6.73;4.40;;;;;;;8.33;81.39;101261.41;4988372;28;20235;-71
2022/05/01 20:41:36;;;;;;;5.20;3.70;;;;;;;8.26;81.15;101251.91;4989262;28;20219;-71
2022/05/01 20:44:16;;;;;;;6.90;4.37;;;;;;;8.30;85.03;101253.59;4985391;28;20221;-70
2022/05/01 20:46:49;;;;;;;4.57;4.00;;;;;;;8.18;82.62;101249.38;4983123;28;20205;-71
2022/05/01 20:49:35;;;;;;;4.93;4.07;;;;;;;8.18;85.48;101256.28;4982723;28;20214;-73
2022/05/01 20:52:06;;;;;;;5.77;3.97;;;;;;;8.08;84.25;101245.97;4984356;28;20205;-70
2022/05/01 20:54:36;;;;;;;5.53;4.20;;;;;;;8.01;84.16;101251.22;4980620;28;20301;-70
2022/05/01 20:57:08;;;;;;;4.63;4.07;;;;;;;8.08;87.30;101247.72;4984506;28;20197;-71
2022/05/01 20:59:36;;;;;;;4.23;3.80;;;;;;;8.08;87.75;101242.50;4984416;28;20208;-70
2022/05/01 21:02:02;;;;;;;5.27;3.80;;;;;;;8.01;86.87;101246.88;4981414;28;20304;-70
2022/05/01 21:04:31;;;;;;;6.17;4.57;;;;;;;7.97;88.12;101247.78;4984633;28;20210;-71
2022/05/01 21:06:58;;;;;;;4.80;4.30;;;;;;;7.97;87.25;101252.97;4982074;28;20209;-71
2022/05/01 21:09:28;;;;;;;4.87;4.20;;;;;;;7.96;89.04;101246.88;4983771;28;20201;-71
2022/05/01 21:11:55;;;;;;;5.23;4.00;;;;;;;7.99;89.01;101250.38;4984750;28;20213;-71
2022/05/01 21:14:23;;;;;;;4.70;3.97;;;;;;;7.92;87.52;101250.38;4978625;28;20216;-70
2022/05/01 21:16:49;;;;;;;5.97;4.10;;;;;;;7.91;87.45;101247.78;4980271;28;20688;-70
2022/05/01 21:19:15;;;;;;;4.20;3.60;;;;;;;7.88;87.97;101250.38;4980505;28;20221;-73
2022/05/01 21:21:42;;;;;;;5.37;4.17;;;;;;;7.87;88.37;101254.72;4960897;28;20242;-72
2022/05/01 21:24:08;;;;;;;5.07;3.73;;;;;;;7.86;89.05;101252.13;4942168;28;20226;-72
2022/05/01 21:26:35;;;;;;;4.47;3.70;;;;;;;7.80;89.96;101247.84;4940963;29;20215;-70
2022/05/01 21:34:30;;;;;;;7.20;4.43;;;;;;;7.77;90.66;101247.84;4935497;28;20654;-73
2022/05/01 21:36:57;;;;;;;6.37;4.40;;;;;;;7.73;90.95;101252.19;4936867;28;20586;-71
2022/05/01 21:39:23;;;;;;;4.37;3.97;;;;;;;7.72;90.75;101254.78;4939344;28;20297;-71
2022/05/01 21:41:50;;;;;;;3.80;3.40;;;;;;;7.78;92.73;101245.25;4936649;28;20237;-70
2022/05/01 21:44:16;;;;;;;4.17;3.77;;;;;;;7.82;92.97;101247.84;4936846;29;20213;-70
2022/05/01 21:46:43;;;;;;;4.40;4.00;;;;;;;7.78;91.77;101240.06;4937009;29;20262;-71
2022/05/01 21:49:10;;;;;;;5.27;4.10;;;;;;;7.73;91.92;101249.59;4937076;28;20246;-72
2022/05/01 21:51:37;;;;;;;5.00;3.70;;;;;;;7.71;91.93;101243.56;4936248;29;20203;-72
2022/05/01 21:54:04;;;;;;;5.47;4.00;;;;;;;7.69;92.40;101253.09;4937432;29;20212;-70
2022/05/01 21:56:30;;;;;;;5.73;3.97;;;;;;;7.71;93.65;101240.97;4937860;29;20214;-70
2022/05/01 21:58:57;;;;;;;4.70;3.10;;;;;;;7.70;93.19;101253.94;4941843;28;20234;-71
2022/05/01 22:01:23;;;;;;;7.03;4.13;;;;;;;7.68;92.18;101258.28;4942803;29;20203;-71
2022/05/01 22:03:49;;;;;;;4.27;3.57;;;;;;;7.65;93.33;101253.09;4942298;28;20785;-72
2022/05/01 22:06:17;;;;;;;4.57;3.97;;;;;;;7.66;93.79;101254.84;4940906;28;20214;-71
2022/05/01 22:08:44;;;;;;;4.70;3.77;;;;;;;7.66;94.06;101250.50;4936682;29;20693;-71
2022/05/01 22:11:10;;;;;;;4.40;4.00;;;;;;;7.62;93.27;101253.97;4940396;29;20567;-71
2022/05/01 22:13:36;;;;;;;3.80;3.40;;;;;;;7.58;92.15;101254.84;4937925;29;20675;-71
2022/05/01 22:16:03;;;;;;;6.93;3.83;;;;;;;7.58;91.76;101255.72;4943322;29;20239;-70
2022/05/01 22:18:30;;;;;;;5.43;4.03;;;;;;;7.57;92.58;101253.13;4942204;28;20239;-70
2022/05/01 22:20:56;;;;;;;4.30;3.90;;;;;;;7.55;92.63;101249.69;4941100;29;20694;-71
2022/05/01 22:23:24;;;;;;;6.00;4.10;;;;;;;7.55;92.89;101252.28;4942889;29;20219;-71
2022/05/01 22:25:50;;;;;;;5.07;4.00;;;;;;;7.55;92.77;101254.88;4942169;29;20233;-70
2022/05/01 22:28:17;;;;;;;5.07;3.90;;;;;;;7.51;93.20;101253.13;4940257;29;20714;-71
2022/05/01 22:30:43;;;;;;;3.63;3.33;;;;;;;7.50;93.85;101254.88;4940782;29;20203;-71
2022/05/01 22:33:10;;;;;;;6.13;4.20;;;;;;;7.53;93.84;101251.44;4944414;29;20223;-71
2022/05/01 22:38:28;;;;;;;5.20;3.97;;;;;;;7.46;92.61;101253.19;4911038;28;20240;-70
2022/05/01 22:40:54;;;;;;;5.43;3.83;;;;;;;7.44;91.26;101257.50;4946863;29;20206;-70
2022/05/01 22:43:21;;;;;;;5.20;4.43;;;;;;;7.45;91.06;101263.56;4945836;29;20614;-72
2022/05/01 22:45:48;;;;;;;6.53;4.33;;;;;;;7.44;92.45;101254.03;4945837;28;20207;-70
2022/05/01 22:48:14;;;;;;;4.77;3.87;;;;;;;7.43;94.27;101249.72;4945545;29;20230;-72
2022/05/01 22:50:41;;;;;;;4.20;3.80;;;;;;;7.40;94.99;101255.78;4944417;29;20577;-71
2022/05/01 22:53:07;;;;;;;5.17;3.90;;;;;;;7.35;94.66;101252.31;4947501;28;20213;-70
2022/05/01 22:55:35;;;;;;;6.73;4.20;;;;;;;7.40;96.39;101248.00;4947147;29;20713;-71
2022/05/01 22:58:02;;;;;;;7.37;4.43;;;;;;;7.41;97.06;101248.88;4947258;29;20802;-72
2022/05/01 23:00:30;;;;;;;5.50;4.37;;;;;;;7.45;98.01;101241.06;4948164;29;20207;-71
2022/05/01 23:02:57;;;;;;;7.50;4.03;;;;;;;7.39;95.96;101247.13;4945991;29;20214;-71
2022/05/01 23:05:24;;;;;;;5.37;4.03;;;;;;;7.36;95.73;101241.09;4947363;29;20209;-70
2022/05/01 23:07:50;;;;;;;7.00;4.47;;;;;;;7.43;98.02;101236.75;4946737;28;20215;-70
2022/05/01 23:10:17;;;;;;;7.77;4.97;;;;;;;7.44;98.48;101241.94;4945986;29;20199;-70
2022/05/01 23:12:45;;;;;;;5.17;4.17;;;;;;;7.35;96.90;101237.66;4945099;29;20793;-71
2022/05/01 23:15:14;;;;;;;6.53;5.17;;;;;;;7.34;97.51;101248.03;4943170;29;20206;-71
2022/05/01 23:17:51;;;;;;;6.27;4.37;;;;;;;7.27;97.54;101247.16;4944674;29;20246;-71
2022/05/01 23:20:22;;;;;;;5.90;4.87;;;;;;;7.24;97.93;101241.13;4945183;29;20211;-72
2022/05/01 23:22:49;;;;;;;4.80;4.30;;;;;;;7.22;97.55;101246.31;4945745;29;20246;-71
2022/05/01 23:25:16;;;;;;;5.10;4.60;;;;;;;7.19;97.97;101239.41;4944741;29;20199;-72
2022/05/01 23:27:44;;;;;;;4.77;4.27;;;;;;;7.17;97.44;101240.28;4942165;29;20223;-72
2022/05/01 23:32:57;;;;;;;8.37;4.57;;;;;;;7.07;98.61;101239.44;4943809;29;20586;-71
2022/05/01 23:35:23;;;;;;;4.83;4.00;;;;;;;7.03;99.58;101232.53;4943232;29;20194;-71
2022/05/01 23:37:50;;;;;;;6.20;3.97;;;;;;;7.04;100.00;101236.00;4945675;29;20222;-70
2022/05/01 23:40:16;;;;;;;5.97;3.90;;;;;;;6.94;100.00;101236.00;4944930;29;20210;-71
2022/05/01 23:42:42;;;;;;;4.20;3.80;;;;;;;6.96;100.00;101229.06;4946978;29;20213;-70
2022/05/01 23:45:11;;;;;;;4.40;3.50;;;;;;;7.04;100.00;101231.66;4946434;29;20210;-71
2022/05/01 23:47:37;;;;;;;4.83;4.13;;;;;;;6.98;100.00;101227.38;4943601;29;20743;-71
2022/05/01 23:50:05;;;;;;;9.17;5.17;;;;;;;6.82;100.00;101236.00;4943620;29;20231;-70
2022/05/01 23:52:31;;;;;;;7.10;5.67;;;;;;;6.91;100.00;101230.84;4944084;29;20222;-70
2022/05/01 23:54:57;;;;;;;9.57;7.40;;;;;;;6.79;100.00;101242.06;4945920;29;20215;-70
2022/05/01 23:57:24;;;;;;;9.77;7.17;;;;;;;6.76;100.00;101236.03;4946563;29;20669;-70
2022/05/01 23:59:50;;;;;;;8.73;7.13;;;;;;;6.86;100.00;101229.09;4946126;28;20214;-70
